createdAt,value
2022-11-03T00:03:02.659Z,2.2
2022-11-03T00:08:10.334Z,2.2
2022-11-03T00:13:18.007Z,3
2022-11-03T00:18:25.672Z,2.8
2022-11-03T00:23:33.436Z,3.4
2022-11-03T00:28:41.211Z,2.9
2022-11-03T00:33:48.984Z,3.3
2022-11-03T00:38:56.824Z,3.2
2022-11-03T00:44:04.530Z,4.8
2022-11-03T00:49:12.247Z,6
2022-11-03T00:54:19.928Z,6.4
2022-11-03T00:59:27.603Z,6.4
2022-11-03T01:04:35.228Z,6.5
2022-11-03T01:09:42.870Z,6.5
2022-11-03T01:14:50.495Z,6.3
2022-11-03T01:19:58.131Z,6.5
2022-11-03T01:25:05.669Z,6.3
2022-11-03T01:30:13.385Z,6.4
2022-11-03T01:35:21.144Z,6.4
2022-11-03T01:40:28.908Z,6.3
2022-11-03T01:45:36.591Z,6
2022-11-03T01:50:44.304Z,5.8
2022-11-03T01:55:52.054Z,6.2
2022-11-03T02:00:59.728Z,6.2
2022-11-03T02:06:07.449Z,6.2
2022-11-03T02:11:15.225Z,6.2
2022-11-03T02:16:22.873Z,6.4
2022-11-03T02:21:30.608Z,6.2
2022-11-03T02:26:38.311Z,6.1
2022-11-03T02:31:46.044Z,5.8
2022-11-03T02:36:53.991Z,6
2022-11-03T02:42:01.946Z,6.1
2022-11-03T02:47:09.857Z,6
2022-11-03T02:52:17.804Z,5.8
2022-11-03T02:57:25.714Z,5.8
2022-11-03T03:02:33.640Z,5.7
2022-11-03T03:07:41.558Z,5.6
2022-11-03T03:12:49.508Z,6.4
2022-11-03T03:17:57.425Z,6.3
2022-11-03T03:23:05.372Z,6.1
2022-11-03T03:28:13.302Z,5.8
2022-11-03T03:33:21.211Z,6.1
2022-11-03T03:38:29.117Z,6.2
2022-11-03T03:43:37.716Z,6.1
2022-11-03T03:48:46.199Z,6.6
2022-11-03T03:53:54.673Z,6.6
2022-11-03T03:59:03.194Z,6.6
2022-11-03T04:04:11.704Z,6.4
2022-11-03T04:09:20.146Z,6.1
2022-11-03T04:14:28.637Z,6.2
2022-11-03T04:19:37.128Z,6.3
2022-11-03T04:24:45.631Z,6.6
2022-11-03T04:29:54.155Z,6.7
2022-11-03T04:35:02.633Z,6.7
2022-11-03T04:40:14.135Z,6.7
2022-11-03T04:45:19.584Z,6.7
2022-11-03T04:50:29.112Z,6.6
2022-11-03T04:55:38.561Z,6.9
2022-11-03T05:00:48.054Z,6.6
2022-11-03T05:05:55.626Z,6.3
2022-11-03T05:11:03.149Z,6.4
2022-11-03T05:16:10.648Z,6.4
2022-11-03T05:21:18.152Z,6.6
2022-11-03T05:26:25.651Z,6.4
2022-11-03T05:31:33.115Z,6.4
2022-11-03T05:36:40.609Z,6.6
2022-11-03T05:41:48.110Z,6.5
2022-11-03T05:46:55.515Z,6.6
2022-11-03T05:52:02.955Z,6.8
2022-11-03T05:57:10.459Z,6.7
2022-11-03T06:02:17.890Z,6.7
2022-11-03T06:07:25.352Z,6.5
2022-11-03T06:12:32.776Z,6.4
2022-11-03T06:17:40.216Z,6.5
2022-11-03T06:22:47.676Z,6.3
2022-11-03T06:27:55.134Z,6.3
2022-11-03T06:33:02.618Z,6.9
2022-11-03T06:38:10.049Z,6.8
2022-11-03T06:43:17.516Z,6.9
2022-11-03T06:48:24.947Z,6.9
2022-11-03T06:53:32.362Z,7.2
2022-11-03T06:58:39.839Z,7.2
2022-11-03T07:03:47.286Z,7.3
2022-11-03T07:08:54.696Z,7.6
2022-11-03T07:14:02.257Z,8.1
2022-11-03T07:19:09.843Z,9
2022-11-03T07:24:17.291Z,10
2022-11-03T07:29:24.792Z,10.2
2022-11-03T07:34:32.256Z,10.4
2022-11-03T07:39:39.813Z,11.1
2022-11-03T07:44:47.223Z,11
2022-11-03T07:49:54.690Z,11.6
2022-11-03T07:55:02.087Z,12.2
2022-11-03T08:00:09.535Z,12.1
2022-11-03T08:05:16.881Z,12.2
2022-11-03T08:10:24.156Z,12.7
2022-11-03T08:15:31.516Z,12.9
2022-11-03T08:20:39.067Z,13.3
2022-11-03T08:25:46.613Z,13.5
2022-11-03T08:30:54.148Z,13.1
2022-11-03T08:36:01.668Z,12.9
2022-11-03T08:41:09.242Z,13.1
2022-11-03T08:46:16.753Z,13.1
2022-11-03T08:51:24.263Z,13
2022-11-03T08:56:31.735Z,12.9
2022-11-03T09:01:39.280Z,12.9
2022-11-03T09:06:46.742Z,12.6
2022-11-03T09:11:54.164Z,12.6
2022-11-03T09:17:01.650Z,12.4
2022-11-03T09:22:09.104Z,12.2
2022-11-03T09:27:17.189Z,12.1
2022-11-03T09:32:23.933Z,12
2022-11-03T09:37:31.079Z,11.7
2022-11-03T09:42:38.048Z,11.8
2022-11-03T09:47:45.258Z,11.9
2022-11-03T09:52:52.383Z,11.8
2022-11-03T09:57:59.351Z,11.9
2022-11-03T10:03:06.413Z,11.7
2022-11-03T10:08:13.445Z,11.6
2022-11-03T10:13:20.597Z,11.4
2022-11-03T10:18:27.736Z,11.5
2022-11-03T10:23:34.786Z,11.3
2022-11-03T10:28:41.960Z,11.4
2022-11-03T10:33:49.201Z,11.4
2022-11-03T10:38:56.277Z,11.5
2022-11-03T10:44:03.404Z,11.6
2022-11-03T10:49:10.548Z,11.7
2022-11-03T10:54:17.720Z,11.9
2022-11-03T10:59:24.860Z,11.9
2022-11-03T11:04:31.965Z,11.8
2022-11-03T11:09:39.111Z,11.9
2022-11-03T11:14:46.200Z,11.9
2022-11-03T11:19:53.327Z,11.9
2022-11-03T11:25:00.471Z,11.9
2022-11-03T11:30:07.570Z,12.1
2022-11-03T11:35:14.689Z,12.1
2022-11-03T11:40:21.924Z,12.3
2022-11-03T11:45:29.192Z,12.5
2022-11-03T11:50:36.427Z,12.9
2022-11-03T11:55:43.651Z,13
2022-11-03T12:00:50.891Z,14.4
2022-11-03T12:05:58.074Z,14.1
2022-11-03T12:11:05.250Z,13.5
2022-11-03T12:16:12.437Z,13.6
2022-11-03T12:21:19.686Z,14
2022-11-03T12:26:26.790Z,13.9
2022-11-03T12:31:33.950Z,13.4
2022-11-03T12:36:41.073Z,13.7
2022-11-03T12:41:48.245Z,14.3
2022-11-03T12:46:55.673Z,14.4
2022-11-03T12:52:03.028Z,14.4
2022-11-03T12:57:10.406Z,14.3
2022-11-03T13:02:17.829Z,13.8
2022-11-03T13:07:25.203Z,13.8
2022-11-03T13:12:32.586Z,13.7
2022-11-03T13:17:39.961Z,13.7
2022-11-03T13:22:47.347Z,13.7
2022-11-03T13:27:54.725Z,13.7
2022-11-03T13:33:02.117Z,14.1
2022-11-03T13:38:09.482Z,15.1
2022-11-03T13:43:16.839Z,15
2022-11-03T13:48:24.211Z,15.2
2022-11-03T13:53:32.223Z,13.9
2022-11-03T13:58:38.761Z,13.2
2022-11-03T14:03:45.850Z,13.9
2022-11-03T14:08:52.771Z,13.1
2022-11-03T14:13:59.860Z,12.5
2022-11-03T14:19:06.902Z,12.3
2022-11-03T14:24:13.986Z,12.1
2022-11-03T14:29:21.089Z,11.9
2022-11-03T14:34:28.099Z,11.7
2022-11-03T14:39:35.194Z,11.5
2022-11-03T14:44:42.362Z,11.4
2022-11-03T14:49:49.504Z,11.4
2022-11-03T14:54:56.686Z,11.3
2022-11-03T15:00:03.835Z,11.3
2022-11-03T15:05:11.034Z,11.3
2022-11-03T15:10:18.210Z,11.1
2022-11-03T15:15:25.396Z,11
2022-11-03T15:20:32.597Z,10.8
2022-11-03T15:25:39.810Z,10.6
2022-11-03T15:30:47.050Z,10.1
2022-11-03T15:35:54.284Z,10
2022-11-03T15:41:01.588Z,9.9
2022-11-03T15:46:08.897Z,9.9
2022-11-03T15:51:16.208Z,9.9
2022-11-03T15:56:23.533Z,9.8
2022-11-03T16:01:30.856Z,9.9
2022-11-03T16:06:38.316Z,10
2022-11-03T16:11:45.771Z,10.1
2022-11-03T16:16:53.314Z,10
2022-11-03T16:22:00.847Z,10.1
2022-11-03T16:27:08.375Z,10
2022-11-03T16:32:15.886Z,9.8
2022-11-03T16:37:23.410Z,9.9
2022-11-03T16:42:30.962Z,9.8
2022-11-03T16:47:38.450Z,10.1
2022-11-03T16:52:46.085Z,9.9
2022-11-03T16:57:53.575Z,10.1
2022-11-03T17:03:01.105Z,10.2
2022-11-03T17:08:08.634Z,10.5
2022-11-03T17:13:16.403Z,10.5
2022-11-03T17:18:24.259Z,10.6
2022-11-03T17:23:31.942Z,10.6
2022-11-03T17:28:39.654Z,10.5
2022-11-03T17:33:47.356Z,10.6
2022-11-03T17:38:55.047Z,10.6
2022-11-03T17:44:02.730Z,10.5
2022-11-03T17:49:10.453Z,10.4
2022-11-03T17:54:18.208Z,10.3
2022-11-03T17:59:25.803Z,10.6
2022-11-03T18:04:33.622Z,10.5
2022-11-03T18:09:41.325Z,10.3
2022-11-03T18:14:48.883Z,10.3
2022-11-03T18:19:57.268Z,10.3
2022-11-03T18:25:05.563Z,10.5
2022-11-03T18:30:13.843Z,10.7
2022-11-03T18:35:22.127Z,10.6
2022-11-03T18:40:30.503Z,10.7
2022-11-03T18:45:38.789Z,10.6
2022-11-03T18:50:47.023Z,10.5
2022-11-03T18:55:55.366Z,10.5
2022-11-03T19:01:03.670Z,10.4
2022-11-03T19:06:11.955Z,10.3
2022-11-03T19:11:20.217Z,10.4
2022-11-03T19:16:28.527Z,10.5
2022-11-03T19:21:36.785Z,10.4
2022-11-03T19:31:55.476Z,10
2022-11-03T19:37:04.870Z,10.2
2022-11-03T19:42:12.278Z,10.1
2022-11-03T19:47:19.531Z,10
2022-11-03T19:52:26.832Z,10
2022-11-03T19:57:34.061Z,10
2022-11-03T20:02:41.344Z,10
2022-11-03T20:07:48.607Z,9.8
2022-11-03T20:12:55.930Z,9.7
2022-11-03T20:18:03.182Z,9.8
2022-11-03T20:23:10.436Z,9.7
2022-11-03T20:28:17.757Z,9.7
2022-11-03T20:33:25.063Z,9.6
2022-11-03T20:38:32.367Z,9.5
2022-11-03T20:43:39.641Z,9.6
2022-11-03T20:48:46.891Z,9.5
2022-11-03T20:53:54.190Z,9.6
2022-11-03T20:59:01.444Z,9.7
2022-11-03T21:04:08.723Z,9.7
2022-11-03T21:09:16.003Z,9.5
2022-11-03T21:14:23.278Z,9.5
2022-11-03T21:19:30.522Z,9.4
2022-11-03T21:24:37.856Z,9.3
2022-11-03T21:29:45.086Z,9.4
2022-11-03T21:34:52.420Z,9.3
2022-11-03T21:39:59.782Z,9.3
2022-11-03T21:45:07.020Z,9.3
2022-11-03T21:50:14.415Z,9.2
2022-11-03T21:55:21.803Z,9.2
2022-11-03T22:00:29.165Z,9.2
2022-11-03T22:05:36.557Z,9.4
2022-11-03T22:10:44.000Z,9.4
2022-11-03T22:15:51.340Z,9.6
2022-11-03T22:20:58.688Z,9.6
2022-11-03T22:26:06.057Z,9.8
2022-11-03T22:31:13.410Z,9.7
2022-11-03T22:36:20.840Z,9.8
2022-11-03T22:41:28.257Z,9.9
2022-11-03T22:46:35.568Z,9.9
2022-11-03T22:51:42.981Z,9.8
2022-11-03T22:56:50.450Z,9.8
2022-11-03T23:01:58.029Z,9.9
2022-11-03T23:07:05.458Z,9.7
2022-11-03T23:12:12.958Z,9.9
2022-11-03T23:17:20.479Z,9.9
2022-11-03T23:22:27.966Z,9.9
2022-11-03T23:27:35.521Z,10
2022-11-03T23:32:42.973Z,9.8
2022-11-03T23:37:50.480Z,9.8
2022-11-03T23:42:57.967Z,9.9
2022-11-03T23:48:05.444Z,9.7
2022-11-03T23:53:12.961Z,9.5
2022-11-03T23:58:20.449Z,9.5
